EST,Max TemperatureF,Mean TemperatureF,Min TemperatureF,Max Dew PointF,MeanDew PointF,Min DewpointF,Max Humidity, Mean Humidity, Min Humidity, Max Sea Level PressureIn, Mean Sea Level PressureIn, Min Sea Level PressureIn, Max VisibilityMiles, Mean VisibilityMiles, Min VisibilityMiles, Max Wind SpeedMPH, Mean Wind SpeedMPH, Max Gust SpeedMPH,PrecipitationIn, CloudCover, Events, WindDirDegrees
2012-12-1,64,56,48,45,43,41,76,63,48,30.23,30.16,30.12,10,10,10,17,10,,0.00,4,,177
2012-12-2,59,56,53,57,56,52,100,97,88,30.13,30.08,30.05,10,6,2,13,8,,0.00,8,Rain,198
2012-12-3,68,62,57,59,58,55,100,81,68,30.13,30.08,30.04,10,10,7,21,12,25,0.00,4,,192
2012-12-4,59,52,41,57,51,41,100,91,82,30.23,30.09,30.03,10,8,2,17,9,,0.00,7,Rain,249
2012-12-5,46,40,33,37,35,32,100,80,57,30.39,30.35,30.31,10,10,10,9,4,,0.00,1,,23
2012-12-6,50,39,28,43,34,27,93,81,62,30.20,30.09,29.99,10,10,10,9,5,,0.00,4,,131
2012-12-7,51,48,46,52,49,46,100,100,100,29.98,29.90,29.83,7,2,0,9,2,,0.00,8,Fog-Rain,79
2012-12-8,51,48,44,50,47,45,100,96,87,30.03,29.95,29.87,10,7,3,10,5,,0.00,8,Rain,332
2012-12-9,57,52,46,57,52,45,100,98,93,29.94,29.80,29.69,10,6,2,15,9,,0.00,8,Rain,168
2012-12-10,39,34,30,37,31,28,93,90,87,29.95,29.84,29.75,10,10,7,16,11,23,0.00,8,,297
2012-12-11,35,32,26,27,25,23,93,79,65,30.22,30.14,30.06,10,10,10,14,8,,0.00,5,,211
2012-12-12,44,32,21,32,27,21,100,75,56,30.40,30.36,30.34,10,10,7,8,3,,0.00,0,,172
2012-12-13,46,34,21,36,27,21,100,74,46,30.42,30.34,30.26,10,10,10,12,5,,0.00,0,,173
2012-12-14,53,40,26,28,26,23,93,63,33,30.30,30.24,30.16,10,10,10,14,5,,0.00,0,,179
2012-12-15,51,46,41,48,42,32,100,85,70,30.08,29.88,29.77,10,9,5,17,10,,0.00,8,Rain,173
2012-12-16,55,50,42,52,47,41,100,85,72,29.74,29.70,29.67,10,10,5,14,6,23,0.00,3,,220
2012-12-17,46,42,39,46,42,39,100,100,100,29.74,29.67,29.57,4,3,2,12,6,,0.00,8,Rain,12
2012-12-18,41,39,37,36,35,34,93,89,81,29.88,29.82,29.72,10,10,10,17,9,,0.00,6,,208
2012-12-19,44,40,35,37,36,32,87,84,76,30.07,30.02,29.96,10,9,8,9,5,,0.00,5,,68
2012-12-20,50,41,30,48,39,28,100,89,66,29.52,29.42,29.25,10,6,2,32,23,41,0.00,8,Rain-Snow,199
2012-12-21,28,26,24,23,21,19,86,81,74,30.14,29.93,29.73,10,7,3,23,18,37,0.00,8,Snow,283
2012-12-22,32,24,17,23,19,16,93,79,64,30.29,30.21,30.09,10,10,10,9,6,,0.00,0,,202
2012-12-23,44,35,26,34,29,21,93,78,57,29.97,29.95,29.93,10,10,10,7,3,,0.00,0,,66
2012-12-24,39,36,32,39,36,32,100,95,87,29.85,29.81,29.79,7,5,1,10,3,,0.00,8,,285
2012-12-25,32,32,32,30,29,27,93,88,80,30.20,30.14,30.08,10,8,5,21,10,25,0.00,8,,25
2012-12-26,30,29,28,30,29,28,100,96,93,29.68,29.66,29.64,2,1,0,32,26,44,0.00,8,Fog-Snow,19
2012-12-27,30,24,19,27,25,19,100,92,86,30.18,30.16,30.13,10,10,7,6,2,,0.00,7,,353
2012-12-28,32,30,28,28,27,27,93,90,80,30.14,30.02,29.88,10,10,7,7,2,,0.00,8,,80
2012-12-29,30,29,24,28,27,21,100,92,80,30.18,29.95,29.81,10,5,2,16,10,23,0.00,8,Snow,295
2012-12-30,26,19,12,19,16,10,93,83,74,30.45,30.41,30.38,10,8,4,12,4,,0.00,1,,187
2012-12-31,35,30,26,32,29,25,100,89,70,30.22,30.15,30.08,10,7,2,14,9,,0.00,7,Snow,197